Time;durP1;ratioP1;P1;durP2;ratioP2;P2;SDS_P1;SDS_P2;PMS_P1;PMS_P2;Temp;Humidity;BMP_temperature;BMP_pressure;BME280_temperature;BME280_humidity;BME280_pressure;Samples;Min_cycle;Max_cycle;Signal;HPM_P1;HPM_P2
2021/06/03 00:00:59;;;;;;;8.75;6.43;;;;;;;13.37;99.21;93423.75;2085137;28;20067;-88
2021/06/03 00:02:01;;;;;;;8.52;5.78;;;;;;;13.39;97.97;93429.47;2098586;28;20025;-87
2021/06/03 00:03:02;;;;;;;9.40;6.78;;;;;;;13.35;98.38;93429.56;2105808;28;20577;-87
2021/06/03 00:04:03;;;;;;;8.90;6.10;;;;;;;13.33;98.83;93423.84;2092907;28;20020;-87
2021/06/03 00:05:06;;;;;;;7.65;6.45;;;;;;;13.33;98.75;93429.22;2087511;28;20049;-88
2021/06/03 00:06:07;;;;;;;6.50;5.80;;;;;;;13.32;98.61;93424.28;2094762;28;20035;-88
2021/06/03 00:07:11;;;;;;;8.18;6.60;;;;;;;13.29;98.72;93417.06;2098816;28;20086;-87
2021/06/03 00:08:13;;;;;;;6.85;6.13;;;;;;;13.26;99.05;93423.31;2095833;28;20024;-87
2021/06/03 00:09:14;;;;;;;7.15;6.45;;;;;;;13.23;99.54;93430.25;2098839;28;20040;-89
2021/06/03 00:10:15;;;;;;;7.00;6.30;;;;;;;13.29;98.33;93428.56;2106169;28;20032;-87
2021/06/03 00:11:16;;;;;;;9.23;6.43;;;;;;;13.27;99.22;93430.94;2089673;28;20067;-88
2021/06/03 00:12:17;;;;;;;9.07;6.57;;;;;;;13.29;98.53;93425.88;2094911;28;20070;-88
2021/06/03 00:13:22;;;;;;;7.03;6.20;;;;;;;13.26;98.74;93432.09;2089327;28;20516;-87
2021/06/03 00:14:24;;;;;;;7.15;6.47;;;;;;;13.27;98.81;93432.84;2098261;28;20029;-88
2021/06/03 00:15:26;;;;;;;7.70;6.53;;;;;;;13.19;99.35;93429.56;2091154;28;20766;-87
2021/06/03 00:16:33;;;;;;;8.07;6.63;;;;;;;13.15;100.00;93423.53;2094229;28;20025;-88
2021/06/03 00:17:33;;;;;;;10.70;6.93;;;;;;;13.04;100.00;93431.13;2093638;28;20100;-87
2021/06/03 00:18:35;;;;;;;6.63;5.95;;;;;;;13.10;100.00;93434.81;2098527;28;20028;-86
2021/06/03 00:19:36;;;;;;;6.93;6.22;;;;;;;13.06;100.00;93434.88;2097555;28;20111;-87
2021/06/03 00:20:37;;;;;;;9.38;7.00;;;;;;;13.11;99.73;93429.00;2089498;28;20025;-88
2021/06/03 00:21:41;;;;;;;7.18;6.47;;;;;;;13.10;99.83;93426.75;2097782;28;20021;-88
2021/06/03 00:22:42;;;;;;;11.75;6.38;;;;;;;13.08;99.55;93437.91;2101013;28;20016;-88
2021/06/03 00:23:43;;;;;;;7.18;6.30;;;;;;;13.10;98.61;93430.19;2097660;28;20066;-87
2021/06/03 00:24:45;;;;;;;7.00;6.30;;;;;;;13.13;98.97;93431.28;2092506;28;20021;-87
2021/06/03 00:25:46;;;;;;;8.23;6.25;;;;;;;13.10;98.87;93434.81;2089817;28;20035;-89
2021/06/03 00:26:47;;;;;;;9.35;6.45;;;;;;;12.99;99.15;93428.94;2096539;28;20020;-87
2021/06/03 00:27:49;;;;;;;6.57;5.95;;;;;;;13.03;99.17;93433.03;2097916;28;20040;-87
2021/06/03 00:28:49;;;;;;;8.25;6.40;;;;;;;13.05;99.03;93435.31;2099319;27;20024;-88
2021/06/03 00:29:50;;;;;;;6.93;6.30;;;;;;;13.03;99.05;93434.97;2099740;28;20131;-88
2021/06/03 00:30:51;;;;;;;6.13;5.60;;;;;;;13.03;98.95;93435.72;2099170;28;20066;-87
2021/06/03 00:31:52;;;;;;;8.30;5.65;;;;;;;13.06;99.04;93439.50;2117970;27;20041;-87
2021/06/03 00:32:52;;;;;;;7.05;5.57;;;;;;;12.99;99.62;93437.00;2104998;28;20028;-87
2021/06/03 00:33:53;;;;;;;8.13;5.90;;;;;;;12.90;99.61;93437.59;2089733;28;20032;-87
2021/06/03 00:34:54;;;;;;;8.35;5.78;;;;;;;12.95;99.37;93439.78;2085540;28;20072;-88
2021/06/03 00:35:54;;;;;;;8.48;5.82;;;;;;;12.95;99.02;93436.34;2096065;28;20020;-86
2021/06/03 00:36:55;;;;;;;6.75;6.05;;;;;;;12.92;98.89;93442.56;2090216;28;20029;-87
2021/06/03 00:37:56;;;;;;;8.30;5.88;;;;;;;12.89;98.79;93436.09;2095744;28;20032;-89
2021/06/03 00:38:56;;;;;;;10.23;6.05;;;;;;;12.95;98.94;93430.97;2082486;28;20489;-88
2021/06/03 00:39:57;;;;;;;6.30;5.70;;;;;;;12.90;98.93;93437.59;2089239;28;20025;-87
2021/06/03 00:40:58;;;;;;;6.75;6.05;;;;;;;12.91;98.80;93428.41;2088787;28;20537;-87
2021/06/03 00:41:59;;;;;;;7.38;5.97;;;;;;;12.89;98.96;93438.03;2097407;28;20028;-87
2021/06/03 00:43:00;;;;;;;6.90;6.00;;;;;;;12.86;98.89;93434.25;2095979;28;20055;-88
2021/06/03 00:44:02;;;;;;;10.68;5.70;;;;;;;12.87;98.88;93437.72;2090609;28;20025;-88
2021/06/03 00:45:06;;;;;;;7.63;6.22;;;;;;;12.81;99.17;93438.19;2082653;28;20619;-87
2021/06/03 00:46:08;;;;;;;6.70;5.53;;;;;;;12.79;98.74;93440.56;2090411;28;20064;-87
2021/06/03 00:47:08;;;;;;;6.43;5.80;;;;;;;12.78;99.19;93438.31;2089438;28;20017;-88
2021/06/03 00:48:09;;;;;;;7.50;5.97;;;;;;;12.80;98.96;93444.75;2097670;28;20044;-87
2021/06/03 00:49:10;;;;;;;7.13;6.05;;;;;;;12.83;98.44;93440.47;2088709;28;20052;-87
2021/06/03 00:50:33;;;;;;;6.43;5.82;;;;;;;12.77;98.78;93442.16;2090830;28;20058;-86
2021/06/03 00:51:34;;;;;;;7.70;6.30;;;;;;;12.77;98.85;93442.91;2091565;28;20472;-87
2021/06/03 00:52:35;;;;;;;7.25;5.60;;;;;;;12.69;99.60;93446.97;2097462;28;20027;-87
2021/06/03 00:53:39;;;;;;;6.68;6.07;;;;;;;12.69;99.76;93446.97;2095951;28;20075;-87
2021/06/03 00:54:39;;;;;;;6.75;6.15;;;;;;;12.68;99.26;93450.78;2104944;28;20023;-87
2021/06/03 00:55:45;;;;;;;6.90;6.20;;;;;;;12.66;99.16;93453.16;2107692;28;20111;-87
2021/06/03 00:56:46;;;;;;;8.38;5.63;;;;;;;12.66;99.74;93452.41;2114125;28;20019;-87
2021/06/03 00:57:47;;;;;;;7.25;6.00;;;;;;;12.64;99.96;93444.00;2095605;28;20021;-87
2021/06/03 00:58:47;;;;;;;6.63;5.57;;;;;;;12.63;99.23;93443.25;2114112;28;20041;-87
2021/06/03 00:59:48;;;;;;;6.40;5.70;;;;;;;12.59;99.88;93450.63;2114291;28;20024;-88
2021/06/03 01:00:51;;;;;;;8.00;6.15;;;;;;;12.58;100.00;93449.13;2105819;28;20027;-87
2021/06/03 01:01:52;;;;;;;6.80;5.80;;;;;;;12.50;100.00;93458.50;2097420;28;20029;-87
2021/06/03 01:02:53;;;;;;;5.75;5.18;;;;;;;12.51;99.82;93452.75;2086136;28;20021;-87
2021/06/03 01:03:54;;;;;;;8.32;5.25;;;;;;;12.50;100.00;93451.22;2092871;28;20444;-88
2021/06/03 01:04:54;;;;;;;6.07;5.22;;;;;;;12.53;100.00;93458.44;2095955;28;20044;-87
2021/06/03 01:05:59;;;;;;;6.18;5.57;;;;;;;12.50;99.94;93461.19;2087093;28;20033;-87
2021/06/03 01:07:00;;;;;;;5.90;5.38;;;;;;;12.51;99.58;93455.44;2096180;28;20025;-88
2021/06/03 01:08:04;;;;;;;5.97;5.40;;;;;;;12.48;100.00;93458.19;2088752;28;20039;-87
2021/06/03 01:09:13;;;;;;;8.77;5.95;;;;;;;12.46;99.77;93453.22;2095323;28;20028;-88
2021/06/03 01:10:23;;;;;;;6.30;5.20;;;;;;;12.46;99.79;93452.47;2096633;28;20031;-87
2021/06/03 01:11:36;;;;;;;6.25;5.53;;;;;;;12.31;99.74;93458.19;2104190;27;20020;-88
2021/06/03 01:12:46;;;;;;;6.30;5.47;;;;;;;12.36;100.00;93459.59;2099743;28;20524;-87
2021/06/03 01:14:06;;;;;;;7.43;5.10;;;;;;;12.40;99.27;93460.28;2091348;28;20453;-87
2021/06/03 01:15:08;;;;;;;6.38;5.75;;;;;;;12.26;99.56;93453.31;2094481;28;20035;-87
2021/06/03 01:16:10;;;;;;;6.28;5.22;;;;;;;12.28;99.74;93458.25;2099230;28;20405;-87
2021/06/03 01:17:11;;;;;;;6.65;5.90;;;;;;;12.27;100.00;93457.50;2093681;28;20087;-88
2021/06/03 01:18:14;;;;;;;5.78;5.18;;;;;;;12.28;99.84;93458.25;2089302;28;20091;-87
2021/06/03 01:19:27;;;;;;;6.25;5.35;;;;;;;12.29;99.49;93465.13;2094585;28;20569;-87
2021/06/03 01:20:33;;;;;;;5.90;5.05;;;;;;;12.24;100.00;93463.69;2095327;28;20020;-87
2021/06/03 01:21:56;;;;;;;6.45;5.60;;;;;;;12.18;100.00;93454.66;2098064;28;20027;-87
2021/06/03 01:23:06;;;;;;;6.50;5.18;;;;;;;12.20;100.00;93452.28;2104128;28;20032;-87
2021/06/03 01:24:39;;;;;;;7.45;5.65;;;;;;;12.17;100.00;93455.06;2106003;28;20028;-87
2021/06/03 01:25:43;;;;;;;7.20;5.07;;;;;;;12.17;100.00;93458.50;2097322;28;20392;-86
2021/06/03 01:26:45;;;;;;;7.60;5.72;;;;;;;12.18;100.00;93459.25;2098124;28;20054;-87
2021/06/03 01:27:46;;;;;;;5.97;5.38;;;;;;;12.22;100.00;93454.56;2089350;28;20024;-87
2021/06/03 01:28:48;;;;;;;6.25;5.15;;;;;;;12.22;100.00;93454.56;2089521;28;20691;-88
2021/06/03 01:30:19;;;;;;;6.95;5.07;;;;;;;12.20;100.00;93459.56;2097087;28;20424;-87
2021/06/03 01:31:20;;;;;;;5.88;5.18;;;;;;;12.19;100.00;93460.75;2090269;28;20095;-88
2021/06/03 01:32:22;;;;;;;6.38;5.20;;;;;;;12.20;100.00;93459.56;2097127;28;20050;-88
2021/06/03 01:33:29;;;;;;;5.85;5.35;;;;;;;12.19;100.00;93458.06;2097473;28;20028;-87
2021/06/03 01:34:31;;;;;;;6.63;5.18;;;;;;;12.13;100.00;93463.19;2090375;28;20017;-89
2021/06/03 01:35:36;;;;;;;7.15;5.15;;;;;;;12.14;100.00;93458.56;2097832;28;20032;-87
2021/06/03 01:36:37;;;;;;;5.38;4.88;;;;;;;12.19;100.00;93461.50;2098170;28;20145;-89
2021/06/03 01:37:40;;;;;;;5.03;4.63;;;;;;;12.10;100.00;93454.03;2099965;28;20457;-86
2021/06/03 01:38:42;;;;;;;6.47;5.22;;;;;;;12.05;100.00;93461.81;2098200;28;20111;-87
2021/06/03 01:39:44;;;;;;;6.00;5.38;;;;;;;12.04;100.00;93458.41;2088925;28;20033;-89
2021/06/03 01:40:47;;;;;;;5.45;4.95;;;;;;;12.07;100.00;93460.25;2105586;28;20032;-87
2021/06/03 01:41:48;;;;;;;7.45;5.22;;;;;;;12.07;100.00;93457.56;2095832;28;20028;-89
2021/06/03 01:42:49;;;;;;;10.25;5.47;;;;;;;12.05;100.00;93451.88;2097338;28;20522;-89
2021/06/03 01:43:51;;;;;;;7.45;5.03;;;;;;;12.08;99.81;93461.75;2105442;28;20032;-87
2021/06/03 01:44:52;;;;;;;5.80;4.80;;;;;;;12.05;100.00;93453.78;2113038;27;20023;-88
2021/06/03 01:45:55;;;;;;;5.40;4.90;;;;;;;11.99;100.00;93453.53;2097939;28;20531;-89
2021/06/03 01:46:57;;;;;;;6.15;4.97;;;;;;;11.98;100.00;93456.59;2104935;28;20361;-87
2021/06/03 01:47:58;;;;;;;8.02;5.15;;;;;;;11.95;100.00;93455.53;2097284;28;20059;-87
2021/06/03 01:49:00;;;;;;;6.22;4.55;;;;;;;11.91;99.70;93452.19;2090384;28;20025;-87
2021/06/03 01:50:01;;;;;;;5.50;4.85;;;;;;;11.88;99.88;93458.34;2093625;28;20025;-88
2021/06/03 01:51:05;;;;;;;5.88;5.28;;;;;;;11.92;100.00;93460.97;2097277;28;20028;-89
2021/06/03 01:52:07;;;;;;;7.57;5.38;;;;;;;11.88;100.00;93457.59;2098176;28;20623;-87
2021/06/03 01:53:08;;;;;;;7.43;5.20;;;;;;;11.92;100.00;93460.97;2105453;28;20024;-88
2021/06/03 01:54:09;;;;;;;5.80;5.22;;;;;;;11.89;100.00;93454.50;2105030;28;20028;-87
2021/06/03 01:55:11;;;;;;;6.40;4.82;;;;;;;11.84;100.00;93463.03;2113704;28;20019;-88
2021/06/03 01:56:14;;;;;;;5.32;4.90;;;;;;;11.86;100.00;93466.06;2114220;28;20024;-86
2021/06/03 01:57:15;;;;;;;7.40;5.20;;;;;;;11.87;100.00;93458.78;2097390;28;20074;-88
2021/06/03 01:58:17;;;;;;;6.47;5.10;;;;;;;11.86;100.00;93457.28;2097025;28;20074;-86
2021/06/03 01:59:17;;;;;;;6.05;4.60;;;;;;;11.85;100.00;93453.81;2097170;28;20492;-87
2021/06/03 02:00:21;;;;;;;6.30;4.95;;;;;;;11.83;100.00;93461.53;2097374;28;20076;-86
2021/06/03 02:01:22;;;;;;;8.18;5.35;;;;;;;11.84;100.00;93457.66;2089190;28;20059;-86
2021/06/03 02:02:22;;;;;;;6.13;5.38;;;;;;;11.86;100.00;93463.38;2088454;28;20151;-86
2021/06/03 02:03:25;;;;;;;6.10;5.57;;;;;;;11.88;100.00;93455.69;2091661;28;20017;-88
2021/06/03 02:04:25;;;;;;;6.20;5.53;;;;;;;11.87;100.00;93456.84;2081044;28;20025;-86
2021/06/03 02:05:27;;;;;;;5.60;5.10;;;;;;;11.89;100.00;93459.09;2098729;28;20041;-86
2021/06/03 02:06:28;;;;;;;8.77;5.82;;;;;;;11.86;100.00;93457.28;2105157;28;20028;-87
2021/06/03 02:07:29;;;;;;;8.80;5.15;;;;;;;11.83;100.00;93459.59;2095915;28;20056;-86
2021/06/03 02:08:30;;;;;;;5.43;4.93;;;;;;;11.89;100.00;93456.44;2097902;28;20126;-88
2021/06/03 02:09:31;;;;;;;7.35;5.20;;;;;;;11.90;100.00;93456.03;2099529;28;20020;-86
2021/06/03 02:10:32;;;;;;;10.15;6.10;;;;;;;11.87;100.00;93459.53;2099446;28;20032;-88
2021/06/03 02:11:37;;;;;;;5.90;5.40;;;;;;;11.89;100.00;93453.75;2095439;28;20025;-89
2021/06/03 02:12:46;;;;;;;5.95;5.45;;;;;;;11.95;100.00;93455.53;2091722;28;20116;-87
2021/06/03 02:13:52;;;;;;;6.10;5.50;;;;;;;11.94;100.00;93461.28;2089695;28;20104;-88
2021/06/03 02:14:56;;;;;;;7.22;5.05;;;;;;;11.98;100.00;93461.97;2098499;28;20021;-87
2021/06/03 02:16:11;;;;;;;6.10;5.28;;;;;;;11.94;100.00;93462.06;2103381;28;20745;-86
2021/06/03 02:17:18;;;;;;;6.82;5.30;;;;;;;11.93;100.00;93462.47;2091765;28;20451;-88
2021/06/03 02:18:21;;;;;;;7.40;4.97;;;;;;;12.00;100.00;93463.06;2105349;28;20028;-87
2021/06/03 02:19:39;;;;;;;5.53;5.03;;;;;;;11.89;100.00;93465.22;2098220;28;20085;-88
2021/06/03 02:20:42;;;;;;;7.55;5.55;;;;;;;11.92;100.00;93467.06;2104159;28;20028;-88
2021/06/03 02:21:47;;;;;;;7.00;5.40;;;;;;;11.93;100.00;93468.56;2097423;28;20101;-87
2021/06/03 02:22:49;;;;;;;6.28;5.50;;;;;;;11.86;100.00;93468.00;2090336;28;20056;-87
2021/06/03 02:23:51;;;;;;;6.80;4.97;;;;;;;11.89;100.00;93470.56;2089303;28;20112;-87
2021/06/03 02:24:53;;;;;;;7.32;5.18;;;;;;;11.83;100.00;93474.91;2093310;28;20530;-87
2021/06/03 02:25:57;;;;;;;7.85;5.70;;;;;;;11.78;100.00;93476.13;2088949;28;20075;-87
2021/06/03 02:26:58;;;;;;;8.35;5.65;;;;;;;11.88;100.00;93471.00;2097202;28;20093;-86
2021/06/03 02:28:00;;;;;;;9.23;6.03;;;;;;;11.85;100.00;93475.25;2099763;28;20118;-87
2021/06/03 02:29:01;;;;;;;6.63;5.03;;;;;;;11.83;100.00;93472.25;2089230;28;20031;-88
2021/06/03 02:30:06;;;;;;;7.65;5.57;;;;;;;11.86;100.00;93468.75;2098026;28;20058;-87
2021/06/03 02:31:08;;;;;;;8.38;5.47;;;;;;;11.87;100.00;93472.91;2097053;28;20039;-86
2021/06/03 02:32:09;;;;;;;8.57;5.88;;;;;;;11.88;100.00;93471.75;2097572;28;20116;-87
2021/06/03 02:33:10;;;;;;;8.77;5.53;;;;;;;11.88;100.00;93474.44;2090705;28;20035;-88
2021/06/03 02:34:11;;;;;;;6.47;5.45;;;;;;;11.92;100.00;93479.72;2084007;28;20027;-87
2021/06/03 02:35:13;;;;;;;8.90;5.75;;;;;;;11.95;100.00;93481.56;2089664;28;20389;-87
2021/06/03 02:36:14;;;;;;;7.38;5.43;;;;;;;11.92;100.00;93475.09;2089402;28;20645;-87
2021/06/03 02:37:16;;;;;;;9.98;5.80;;;;;;;11.92;100.00;93477.03;2087229;28;20017;-87
2021/06/03 02:38:25;;;;;;;7.88;6.13;;;;;;;11.93;100.00;93473.94;2093779;28;20052;-87
2021/06/03 02:39:26;;;;;;;8.32;5.38;;;;;;;11.95;100.00;93478.91;2086346;28;20018;-87
2021/06/03 02:40:30;;;;;;;5.82;5.25;;;;;;;11.90;100.00;93480.13;2101235;28;20048;-87
2021/06/03 02:41:32;;;;;;;6.75;5.18;;;;;;;11.88;100.00;93477.09;2097645;28;20024;-87
2021/06/03 02:42:33;;;;;;;9.00;5.72;;;;;;;11.87;100.00;93480.97;2097062;28;20388;-87
2021/06/03 02:43:36;;;;;;;10.48;5.85;;;;;;;11.91;100.00;93478.97;2114075;28;20027;-88
2021/06/03 02:44:40;;;;;;;7.63;5.65;;;;;;;11.87;100.00;93472.16;2105294;28;20058;-87
2021/06/03 02:45:41;;;;;;;6.85;4.88;;;;;;;11.83;100.00;93473.00;2091335;28;20725;-86
2021/06/03 02:46:42;;;;;;;8.52;5.88;;;;;;;11.84;100.00;93479.09;2097266;28;20055;-87
2021/06/03 02:47:43;;;;;;;7.05;5.40;;;;;;;11.86;100.00;93479.47;2106948;28;20028;-87
2021/06/03 02:48:44;;;;;;;9.88;5.68;;;;;;;11.92;100.00;93471.69;2090818;28;20029;-87
2021/06/03 02:49:45;;;;;;;6.25;5.28;;;;;;;11.84;100.00;93479.09;2086377;28;20067;-86
2021/06/03 02:50:46;;;;;;;8.30;5.60;;;;;;;11.80;100.00;93481.81;2092970;28;20031;-86
2021/06/03 02:51:47;;;;;;;8.73;5.30;;;;;;;11.82;100.00;93484.09;2100128;28;20169;-88
2021/06/03 02:52:48;;;;;;;5.93;5.35;;;;;;;11.88;100.00;93482.47;2103402;28;20031;-87
2021/06/03 02:53:49;;;;;;;7.57;5.38;;;;;;;11.89;100.00;93477.84;2088827;28;20039;-86
2021/06/03 02:54:49;;;;;;;8.40;5.28;;;;;;;11.81;100.00;93475.31;2088766;28;20021;-86
2021/06/03 02:55:50;;;;;;;9.77;5.43;;;;;;;11.82;100.00;93484.09;2097335;28;20089;-88
2021/06/03 02:56:51;;;;;;;6.82;5.28;;;;;;;11.76;100.00;93486.50;2114709;28;20110;-87
2021/06/03 02:57:52;;;;;;;7.60;5.47;;;;;;;11.80;100.00;93484.50;2110422;28;20016;-86
2021/06/03 02:58:53;;;;;;;7.57;5.63;;;;;;;11.80;100.00;93481.06;2088663;28;20047;-88
2021/06/03 02:59:54;;;;;;;10.63;6.07;;;;;;;11.80;100.00;93486.41;2097804;28;20020;-86
2021/06/03 03:00:54;;;;;;;6.22;5.30;;;;;;;11.79;100.00;93485.66;2091315;28;20059;-87
2021/06/03 03:01:55;;;;;;;9.00;5.63;;;;;;;11.76;100.00;93481.13;2101069;28;20027;-88
2021/06/03 03:02:56;;;;;;;6.13;5.20;;;;;;;11.80;100.00;93483.75;2096991;28;20062;-87
2021/06/03 03:03:57;;;;;;;6.72;5.88;;;;;;;11.78;100.00;93486.84;2090274;28;20505;-86
2021/06/03 03:04:58;;;;;;;5.60;4.97;;;;;;;11.78;100.00;93486.84;2099326;28;20032;-87
2021/06/03 03:05:59;;;;;;;6.45;5.20;;;;;;;11.81;100.00;93487.94;2097309;28;20404;-86
2021/06/03 03:06:59;;;;;;;7.00;6.00;;;;;;;11.73;100.00;93487.34;2108728;28;20028;-87
2021/06/03 03:08:03;;;;;;;6.10;5.53;;;;;;;11.72;100.00;93490.41;2113334;28;20152;-88
2021/06/03 03:09:04;;;;;;;6.43;5.50;;;;;;;11.76;100.00;93485.75;2107357;28;20471;-87
2021/06/03 03:10:10;;;;;;;6.95;5.43;;;;;;;11.77;100.00;93485.34;2098746;28;20043;-87
2021/06/03 03:11:10;;;;;;;7.00;5.35;;;;;;;11.74;100.00;93488.84;2099291;28;20056;-87
2021/06/03 03:12:11;;;;;;;6.00;5.50;;;;;;;11.72;100.00;93488.50;2090452;28;20028;-88
2021/06/03 03:13:17;;;;;;;7.63;5.63;;;;;;;11.75;100.00;93489.59;2098225;28;20031;-87
2021/06/03 03:14:17;;;;;;;6.05;5.43;;;;;;;11.75;100.00;93486.91;2101207;28;20025;-87
2021/06/03 03:15:19;;;;;;;6.28;5.57;;;;;;;11.74;100.00;93488.84;2098778;28;20035;-87
2021/06/03 03:16:19;;;;;;;6.18;5.47;;;;;;;11.73;100.00;93490.00;2088472;28;20113;-87
2021/06/03 03:17:20;;;;;;;8.35;5.72;;;;;;;11.75;100.00;93489.59;2083033;28;20032;-86
2021/06/03 03:18:21;;;;;;;5.55;4.95;;;;;;;11.70;100.00;93484.72;2098500;28;20531;-86
2021/06/03 03:19:22;;;;;;;6.65;5.50;;;;;;;11.68;100.00;93481.72;2085051;28;20029;-88
2021/06/03 03:20:25;;;;;;;5.72;5.10;;;;;;;11.68;100.00;93487.06;2090524;28;20021;-85
2021/06/03 03:21:25;;;;;;;5.47;5.00;;;;;;;11.64;100.00;93486.38;2090892;28;20110;-88
2021/06/03 03:22:26;;;;;;;6.00;5.40;;;;;;;11.58;100.00;93486.84;2090749;28;20025;-87
2021/06/03 03:23:27;;;;;;;7.60;5.50;;;;;;;11.58;100.00;93492.19;2083994;28;20043;-86
2021/06/03 03:24:28;;;;;;;6.13;5.53;;;;;;;11.57;100.00;93489.94;2083263;28;20056;-88
2021/06/03 03:25:29;;;;;;;5.90;5.30;;;;;;;11.52;100.00;93490.44;2090231;28;20060;-87
2021/06/03 03:26:30;;;;;;;5.38;4.75;;;;;;;11.50;100.00;93490.84;2094894;28;20036;-85
2021/06/03 03:27:30;;;;;;;5.50;5.00;;;;;;;11.53;100.00;93483.91;2098624;28;20423;-87
2021/06/03 03:28:31;;;;;;;6.80;5.50;;;;;;;11.49;100.00;93486.66;2098576;28;20028;-88
2021/06/03 03:29:32;;;;;;;5.88;5.38;;;;;;;11.47;100.00;93485.56;2090115;28;20059;-85
2021/06/03 03:30:40;;;;;;;6.38;4.80;;;;;;;11.42;100.00;93492.16;2083071;28;20086;-87
2021/06/03 03:31:41;;;;;;;5.53;5.05;;;;;;;11.41;100.00;93487.19;2088278;28;20469;-86
2021/06/03 03:32:41;;;;;;;5.38;4.97;;;;;;;11.39;100.00;93495.63;2094070;28;20136;-87
2021/06/03 03:33:42;;;;;;;5.80;5.30;;;;;;;11.39;100.00;93494.88;2097762;28;20025;-88
2021/06/03 03:34:43;;;;;;;5.50;5.00;;;;;;;11.36;100.00;93496.44;2086213;28;20034;-87
2021/06/03 03:35:46;;;;;;;5.00;4.60;;;;;;;11.29;100.00;93496.59;2090334;28;20135;-88
2021/06/03 03:36:47;;;;;;;5.43;4.93;;;;;;;11.32;100.00;93495.75;2089894;28;20029;-88
2021/06/03 03:37:49;;;;;;;5.47;4.97;;;;;;;11.26;100.00;93494.72;2096697;28;20017;-85
2021/06/03 03:38:50;;;;;;;5.85;5.25;;;;;;;11.24;100.00;93499.75;2098787;28;20024;-87
2021/06/03 03:39:51;;;;;;;5.68;5.10;;;;;;;11.26;100.00;93502.75;2106436;28;20386;-88
2021/06/03 03:40:52;;;;;;;5.13;4.72;;;;;;;11.25;100.00;93498.59;2107806;28;20020;-87
2021/06/03 03:41:54;;;;;;;7.65;5.03;;;;;;;11.25;100.00;93495.91;2101351;28;20059;-88
2021/06/03 03:42:55;;;;;;;9.07;5.40;;;;;;;11.25;100.00;93501.25;2090256;28;20017;-86
2021/06/03 03:43:56;;;;;;;5.75;5.13;;;;;;;11.18;100.00;93499.44;2097996;28;20112;-88
2021/06/03 03:44:56;;;;;;;5.57;5.07;;;;;;;11.21;100.00;93497.88;2089943;28;20031;-86
2021/06/03 03:45:57;;;;;;;6.15;5.55;;;;;;;11.16;100.00;93509.06;2098879;28;20024;-85
2021/06/03 03:46:58;;;;;;;7.13;5.40;;;;;;;11.16;100.00;93506.41;2099052;28;20025;-87
2021/06/03 03:48:01;;;;;;;8.70;5.63;;;;;;;11.09;100.00;93505.34;2108002;28;20050;-86
2021/06/03 03:49:02;;;;;;;10.02;5.28;;;;;;;11.14;100.00;93508.72;2099325;28;20574;-85
2021/06/03 03:50:08;;;;;;;6.45;5.53;;;;;;;11.13;100.00;93507.22;2099269;28;20039;-87
2021/06/03 03:51:12;;;;;;;8.98;5.20;;;;;;;11.17;100.00;93515.94;2095656;28;20043;-86
2021/06/03 03:52:13;;;;;;;6.88;4.97;;;;;;;11.13;100.00;93512.56;2097835;28;20535;-87
2021/06/03 03:53:14;;;;;;;9.32;5.90;;;;;;;11.19;100.00;93511.66;2098380;28;20029;-86
2021/06/03 03:54:15;;;;;;;7.93;5.63;;;;;;;11.20;100.00;93509.75;2089913;28;20494;-86
2021/06/03 03:55:17;;;;;;;6.22;5.18;;;;;;;11.20;100.00;93515.13;2089969;28;20051;-88
2021/06/03 03:56:18;;;;;;;8.40;5.30;;;;;;;11.20;100.00;93523.91;2089988;28;20100;-86
2021/06/03 03:57:22;;;;;;;6.32;4.93;;;;;;;11.19;100.00;93524.28;2090412;28;20012;-88
2021/06/03 03:58:22;;;;;;;7.55;5.28;;;;;;;11.24;100.00;93516.56;2090373;28;20029;-86
2021/06/03 03:59:24;;;;;;;6.38;5.13;;;;;;;11.28;100.00;93521.81;2089764;28;20466;-87
2021/06/03 04:00:28;;;;;;;8.38;5.25;;;;;;;11.30;100.00;93519.50;2106361;28;20035;-88
2021/06/03 04:01:30;;;;;;;6.50;4.68;;;;;;;11.33;100.00;93521.38;2097107;28;20020;-86
2021/06/03 04:02:30;;;;;;;8.15;5.47;;;;;;;11.33;100.00;93519.44;2105107;28;20024;-87
2021/06/03 04:03:31;;;;;;;6.18;5.57;;;;;;;11.30;100.00;93519.50;2094453;28;20041;-85
2021/06/03 04:04:32;;;;;;;5.60;5.03;;;;;;;11.34;100.00;93520.97;2091749;28;20025;-86
2021/06/03 04:05:33;;;;;;;7.32;5.38;;;;;;;11.39;100.00;93518.97;2088211;28;20049;-86
2021/06/03 04:06:38;;;;;;;6.22;5.63;;;;;;;11.45;100.00;93520.00;2098412;28;20439;-86
2021/06/03 04:07:39;;;;;;;6.10;4.63;;;;;;;11.48;100.00;93519.94;2090560;28;20482;-86
2021/06/03 04:08:40;;;;;;;6.45;5.45;;;;;;;11.47;100.00;93518.44;2089698;28;20021;-85
2021/06/03 04:09:41;;;;;;;7.82;5.25;;;;;;;11.49;100.00;93521.44;2098280;28;20078;-87
2021/06/03 04:10:42;;;;;;;6.90;5.40;;;;;;;11.47;100.00;93523.78;2098429;28;20039;-86
2021/06/03 04:11:43;;;;;;;11.55;5.88;;;;;;;11.46;100.00;93529.56;2097508;28;20024;-86
2021/06/03 04:12:44;;;;;;;8.45;5.32;;;;;;;11.51;100.00;93521.81;2098311;28;20024;-87
2021/06/03 04:13:46;;;;;;;6.80;5.32;;;;;;;11.49;100.00;93529.47;2089868;28;20021;-86
2021/06/03 04:14:47;;;;;;;6.15;5.45;;;;;;;11.55;100.00;93525.16;2090269;28;20025;-87
2021/06/03 04:15:48;;;;;;;6.13;5.53;;;;;;;11.62;100.00;93518.16;2090006;28;20075;-87
2021/06/03 04:16:48;;;;;;;8.60;6.00;;;;;;;11.63;100.00;93520.41;2095812;28;20504;-87
2021/06/03 04:17:49;;;;;;;5.63;5.10;;;;;;;11.68;100.00;93511.16;2090269;28;20389;-86
2021/06/03 04:18:50;;;;;;;6.88;5.35;;;;;;;11.68;100.00;93516.53;2086392;28;20104;-85
2021/06/03 04:19:51;;;;;;;7.72;5.35;;;;;;;11.68;100.00;93517.28;2088407;28;20111;-87
2021/06/03 04:20:51;;;;;;;5.57;5.07;;;;;;;11.68;100.00;93516.53;2091228;28;20063;-86
2021/06/03 04:21:52;;;;;;;5.65;4.55;;;;;;;11.70;100.00;93525.66;2089741;28;20036;-87
2021/06/03 04:22:53;;;;;;;6.32;5.25;;;;;;;11.74;100.00;93520.97;2096637;28;20020;-87
2021/06/03 04:23:53;;;;;;;5.72;4.93;;;;;;;11.69;100.00;93523.38;2089567;28;20474;-88
2021/06/03 04:24:54;;;;;;;5.30;4.80;;;;;;;11.73;100.00;93527.50;2098205;28;20452;-88
2021/06/03 04:25:55;;;;;;;8.57;5.47;;;;;;;11.74;100.00;93517.53;2090468;28;20043;-87
2021/06/03 04:26:56;;;;;;;5.72;5.32;;;;;;;11.67;100.00;93525.72;2089763;28;20029;-87
2021/06/03 04:27:57;;;;;;;5.13;4.70;;;;;;;11.69;100.00;93518.03;2089954;28;20496;-86
2021/06/03 04:28:58;;;;;;;5.75;5.25;;;;;;;11.66;100.00;93522.28;2097715;28;20412;-86
2021/06/03 04:29:59;;;;;;;6.00;5.07;;;;;;;11.67;100.00;93525.72;2091489;28;20029;-86
2021/06/03 04:31:00;;;;;;;5.95;5.40;;;;;;;11.68;100.00;93521.88;2097993;28;20021;-87
2021/06/03 04:32:00;;;;;;;5.93;5.18;;;;;;;11.64;100.00;93527.31;2098182;28;20107;-86
2021/06/03 04:33:01;;;;;;;5.75;5.20;;;;;;;11.65;100.00;93517.34;2097990;28;20082;-86
2021/06/03 04:34:02;;;;;;;5.40;4.90;;;;;;;11.67;100.00;93531.06;2089299;28;20126;-86
2021/06/03 04:35:04;;;;;;;5.93;5.38;;;;;;;11.63;100.00;93533.81;2082441;28;20032;-87
2021/06/03 04:36:06;;;;;;;5.47;5.00;;;;;;;11.61;100.00;93536.16;2098356;28;20025;-87
2021/06/03 04:37:07;;;;;;;5.40;5.00;;;;;;;11.58;100.00;93535.03;2089243;28;20032;-88
2021/06/03 04:38:08;;;;;;;6.00;5.50;;;;;;;11.60;100.00;93529.28;2089618;28;20040;-88
2021/06/03 04:39:08;;;;;;;5.47;4.97;;;;;;;11.60;100.00;93532.72;2097645;28;20073;-86
2021/06/03 04:40:09;;;;;;;6.35;5.75;;;;;;;11.65;100.00;93544.13;2089868;28;20024;-87
2021/06/03 04:41:10;;;;;;;5.43;4.93;;;;;;;11.65;100.00;93533.41;2090086;28;20506;-88
2021/06/03 04:42:11;;;;;;;7.03;5.80;;;;;;;11.66;100.00;93529.56;2089752;28;20044;-87
2021/06/03 04:43:12;;;;;;;5.65;4.88;;;;;;;11.66;100.00;93545.63;2098074;28;20025;-86
2021/06/03 04:44:15;;;;;;;7.45;6.75;;;;;;;11.66;100.00;93540.28;2084249;28;20036;-88
2021/06/03 04:45:20;;;;;;;7.20;6.22;;;;;;;11.64;100.00;93539.94;2104609;28;20032;-87
2021/06/03 04:46:21;;;;;;;6.07;5.57;;;;;;;11.62;100.00;93534.22;2101422;28;20023;-87
2021/06/03 04:47:22;;;;;;;6.85;6.22;;;;;;;11.68;100.00;93543.31;2089475;28;20079;-87
2021/06/03 04:48:23;;;;;;;7.75;6.13;;;;;;;11.71;100.00;93545.13;2097604;28;20048;-88
2021/06/03 04:49:24;;;;;;;7.88;6.22;;;;;;;11.74;100.00;93536.28;2095755;28;20029;-87
2021/06/03 04:50:24;;;;;;;6.90;6.15;;;;;;;11.79;100.00;93543.84;2090430;28;20340;-87
2021/06/03 04:51:25;;;;;;;8.27;5.97;;;;;;;11.82;100.00;93535.00;2106213;28;20028;-87